sensor_id;sensor_type;location;lat;lon;timestamp;P1;P2;P0
68841;PMS5003;55849;48.482;2.332;2023-06-14T00:00:57;11.50;11.25;8.25
68841;PMS5003;55849;48.482;2.332;2023-06-14T00:03:59;13.25;10.25;7.50
68841;PMS5003;55849;48.482;2.332;2023-06-14T00:07:01;14.25;12.25;8.25
68841;PMS5003;55849;48.482;2.332;2023-06-14T00:10:02;10.00;9.50;6.75
68841;PMS5003;55849;48.482;2.332;2023-06-14T00:13:06;11.75;11.25;7.75
68841;PMS5003;55849;48.482;2.332;2023-06-14T00:16:08;10.00;10.00;6.50
68841;PMS5003;55849;48.482;2.332;2023-06-14T00:19:09;10.50;9.00;7.25
68841;PMS5003;55849;48.482;2.332;2023-06-14T00:22:11;10.75;10.50;8.25
68841;PMS5003;55849;48.482;2.332;2023-06-14T00:25:13;9.50;9.50;7.00
68841;PMS5003;55849;48.482;2.332;2023-06-14T00:28:16;13.25;13.25;9.00
68841;PMS5003;55849;48.482;2.332;2023-06-14T00:31:18;9.50;9.50;7.50
68841;PMS5003;55849;48.482;2.332;2023-06-14T00:34:19;11.75;11.75;8.75
68841;PMS5003;55849;48.482;2.332;2023-06-14T00:37:21;12.00;11.25;8.25
68841;PMS5003;55849;48.482;2.332;2023-06-14T00:40:23;12.25;11.50;8.00
68841;PMS5003;55849;48.482;2.332;2023-06-14T00:43:26;11.75;10.75;8.25
68841;PMS5003;55849;48.482;2.332;2023-06-14T00:46:28;19.25;13.00;8.25
68841;PMS5003;55849;48.482;2.332;2023-06-14T00:49:30;7.50;7.25;6.75
68841;PMS5003;55849;48.482;2.332;2023-06-14T00:52:32;10.50;10.50;7.50
68841;PMS5003;55849;48.482;2.332;2023-06-14T00:55:34;11.25;11.00;7.25
68841;PMS5003;55849;48.482;2.332;2023-06-14T00:58:37;10.50;10.50;7.50
68841;PMS5003;55849;48.482;2.332;2023-06-14T01:01:39;10.25;10.25;7.00
68841;PMS5003;55849;48.482;2.332;2023-06-14T01:04:40;14.00;11.75;9.75
68841;PMS5003;55849;48.482;2.332;2023-06-14T01:07:55;12.75;9.00;7.25
68841;PMS5003;55849;48.482;2.332;2023-06-14T01:11:07;10.75;10.00;7.50
68841;PMS5003;55849;48.482;2.332;2023-06-14T01:14:14;9.50;9.50;5.25
68841;PMS5003;55849;48.482;2.332;2023-06-14T01:17:18;14.75;11.00;8.25
68841;PMS5003;55849;48.482;2.332;2023-06-14T01:20:21;9.00;8.25;5.00
68841;PMS5003;55849;48.482;2.332;2023-06-14T01:23:24;12.00;9.25;8.25
68841;PMS5003;55849;48.482;2.332;2023-06-14T01:26:32;13.75;11.00;7.00
68841;PMS5003;55849;48.482;2.332;2023-06-14T01:29:34;16.50;13.75;10.25
68841;PMS5003;55849;48.482;2.332;2023-06-14T01:32:36;10.75;9.75;8.50
68841;PMS5003;55849;48.482;2.332;2023-06-14T01:35:38;11.75;11.75;9.00
68841;PMS5003;55849;48.482;2.332;2023-06-14T01:38:41;8.75;8.75;7.25
68841;PMS5003;55849;48.482;2.332;2023-06-14T01:41:44;13.50;12.25;9.50
68841;PMS5003;55849;48.482;2.332;2023-06-14T01:44:47;16.00;11.00;8.00
68841;PMS5003;55849;48.482;2.332;2023-06-14T01:47:50;14.75;12.00;9.75
68841;PMS5003;55849;48.482;2.332;2023-06-14T01:50:52;9.00;8.50;6.75
68841;PMS5003;55849;48.482;2.332;2023-06-14T01:53:55;14.75;12.50;9.00
68841;PMS5003;55849;48.482;2.332;2023-06-14T01:56:57;11.00;9.50;7.25
68841;PMS5003;55849;48.482;2.332;2023-06-14T01:59:59;11.00;11.00;8.25
68841;PMS5003;55849;48.482;2.332;2023-06-14T02:03:00;14.75;14.75;9.25
68841;PMS5003;55849;48.482;2.332;2023-06-14T02:06:04;10.25;10.25;9.00
68841;PMS5003;55849;48.482;2.332;2023-06-14T02:09:07;15.00;11.00;9.50
68841;PMS5003;55849;48.482;2.332;2023-06-14T02:12:08;9.50;9.50;8.25
68841;PMS5003;55849;48.482;2.332;2023-06-14T02:15:10;13.50;11.25;8.50
68841;PMS5003;55849;48.482;2.332;2023-06-14T02:18:16;10.75;10.75;8.00
68841;PMS5003;55849;48.482;2.332;2023-06-14T02:21:18;15.75;13.25;9.00
68841;PMS5003;55849;48.482;2.332;2023-06-14T02:24:21;13.50;9.50;7.00
68841;PMS5003;55849;48.482;2.332;2023-06-14T02:27:23;14.50;10.75;8.75
68841;PMS5003;55849;48.482;2.332;2023-06-14T02:30:25;17.25;13.00;9.00
68841;PMS5003;55849;48.482;2.332;2023-06-14T02:33:26;11.50;10.50;7.75
68841;PMS5003;55849;48.482;2.332;2023-06-14T02:36:28;10.00;10.00;8.00
68841;PMS5003;55849;48.482;2.332;2023-06-14T02:39:31;13.75;12.50;9.25
68841;PMS5003;55849;48.482;2.332;2023-06-14T02:42:33;13.50;11.00;9.00
68841;PMS5003;55849;48.482;2.332;2023-06-14T02:45:35;15.75;12.50;7.50
68841;PMS5003;55849;48.482;2.332;2023-06-14T02:48:36;13.50;12.50;9.75
68841;PMS5003;55849;48.482;2.332;2023-06-14T02:51:38;14.25;13.00;10.25
68841;PMS5003;55849;48.482;2.332;2023-06-14T02:54:41;11.25;11.25;8.50
68841;PMS5003;55849;48.482;2.332;2023-06-14T02:57:43;13.75;13.75;9.75
68841;PMS5003;55849;48.482;2.332;2023-06-14T03:00:45;15.00;12.50;8.25
68841;PMS5003;55849;48.482;2.332;2023-06-14T03:03:46;15.00;14.00;10.50
68841;PMS5003;55849;48.482;2.332;2023-06-14T03:06:48;13.50;12.50;8.25
68841;PMS5003;55849;48.482;2.332;2023-06-14T03:09:51;13.75;13.75;9.50
68841;PMS5003;55849;48.482;2.332;2023-06-14T03:12:53;20.75;12.50;10.25
68841;PMS5003;55849;48.482;2.332;2023-06-14T03:15:54;16.75;14.25;9.00
68841;PMS5003;55849;48.482;2.332;2023-06-14T03:18:56;13.25;13.25;8.25
68841;PMS5003;55849;48.482;2.332;2023-06-14T03:21:57;16.75;14.50;10.75
68841;PMS5003;55849;48.482;2.332;2023-06-14T03:25:00;20.75;15.75;10.75
68841;PMS5003;55849;48.482;2.332;2023-06-14T03:28:04;15.50;15.25;10.50
68841;PMS5003;55849;48.482;2.332;2023-06-14T03:31:06;18.75;14.50;10.50
68841;PMS5003;55849;48.482;2.332;2023-06-14T03:34:08;15.00;13.75;9.00
68841;PMS5003;55849;48.482;2.332;2023-06-14T03:37:10;21.50;14.75;9.50
68841;PMS5003;55849;48.482;2.332;2023-06-14T03:40:15;17.00;14.00;9.00
68841;PMS5003;55849;48.482;2.332;2023-06-14T03:43:20;13.25;12.75;9.25
68841;PMS5003;55849;48.482;2.332;2023-06-14T03:46:21;15.25;13.75;9.50
68841;PMS5003;55849;48.482;2.332;2023-06-14T03:49:23;20.25;14.50;9.25
68841;PMS5003;55849;48.482;2.332;2023-06-14T03:52:24;14.75;12.00;9.25
68841;PMS5003;55849;48.482;2.332;2023-06-14T03:55:27;11.25;11.25;9.25
68841;PMS5003;55849;48.482;2.332;2023-06-14T03:58:31;13.50;12.75;8.25
68841;PMS5003;55849;48.482;2.332;2023-06-14T04:01:33;15.75;14.25;9.50
68841;PMS5003;55849;48.482;2.332;2023-06-14T04:04:34;16.00;15.00;10.75
68841;PMS5003;55849;48.482;2.332;2023-06-14T04:07:37;16.25;16.25;12.00
68841;PMS5003;55849;48.482;2.332;2023-06-14T04:10:41;14.50;13.50;9.50
68841;PMS5003;55849;48.482;2.332;2023-06-14T04:13:42;17.25;13.25;9.75
68841;PMS5003;55849;48.482;2.332;2023-06-14T04:16:45;20.25;17.75;12.50
68841;PMS5003;55849;48.482;2.332;2023-06-14T04:19:46;12.50;12.50;10.75
68841;PMS5003;55849;48.482;2.332;2023-06-14T04:22:48;16.00;15.50;10.25
68841;PMS5003;55849;48.482;2.332;2023-06-14T04:25:51;18.75;16.00;9.25
68841;PMS5003;55849;48.482;2.332;2023-06-14T04:28:53;17.25;17.25;11.25
68841;PMS5003;55849;48.482;2.332;2023-06-14T04:31:56;14.25;14.25;11.25
68841;PMS5003;55849;48.482;2.332;2023-06-14T04:35:00;18.00;14.50;10.25
68841;PMS5003;55849;48.482;2.332;2023-06-14T04:38:03;15.75;14.00;10.25
68841;PMS5003;55849;48.482;2.332;2023-06-14T04:41:10;16.50;14.25;10.00
68841;PMS5003;55849;48.482;2.332;2023-06-14T04:44:12;18.00;16.25;11.00
68841;PMS5003;55849;48.482;2.332;2023-06-14T04:47:13;19.25;16.50;12.00
68841;PMS5003;55849;48.482;2.332;2023-06-14T04:50:16;16.00;14.75;11.00
68841;PMS5003;55849;48.482;2.332;2023-06-14T04:53:18;19.50;16.75;11.50
68841;PMS5003;55849;48.482;2.332;2023-06-14T04:56:24;17.75;16.00;10.50
68841;PMS5003;55849;48.482;2.332;2023-06-14T04:59:26;15.25;15.25;10.50
68841;PMS5003;55849;48.482;2.332;2023-06-14T05:02:27;17.25;17.25;10.75
68841;PMS5003;55849;48.482;2.332;2023-06-14T05:05:30;15.75;14.00;12.00
68841;PMS5003;55849;48.482;2.332;2023-06-14T05:08:33;16.75;13.50;8.75
68841;PMS5003;55849;48.482;2.332;2023-06-14T05:11:35;16.00;14.75;10.50
68841;PMS5003;55849;48.482;2.332;2023-06-14T05:14:37;18.50;16.25;10.50
68841;PMS5003;55849;48.482;2.332;2023-06-14T05:17:39;18.25;16.25;12.00
68841;PMS5003;55849;48.482;2.332;2023-06-14T05:20:41;10.75;9.25;6.25
68841;PMS5003;55849;48.482;2.332;2023-06-14T05:23:42;15.25;15.00;11.50
68841;PMS5003;55849;48.482;2.332;2023-06-14T05:26:46;20.75;19.00;12.25
68841;PMS5003;55849;48.482;2.332;2023-06-14T05:29:47;16.25;16.25;12.00
68841;PMS5003;55849;48.482;2.332;2023-06-14T05:32:50;20.50;17.50;12.25
68841;PMS5003;55849;48.482;2.332;2023-06-14T05:35:52;16.25;14.50;10.25
68841;PMS5003;55849;48.482;2.332;2023-06-14T05:38:55;20.00;17.75;12.00
68841;PMS5003;55849;48.482;2.332;2023-06-14T05:42:00;17.00;14.75;11.00
68841;PMS5003;55849;48.482;2.332;2023-06-14T05:45:02;19.50;18.00;11.75
68841;PMS5003;55849;48.482;2.332;2023-06-14T05:48:04;19.25;17.25;12.00
68841;PMS5003;55849;48.482;2.332;2023-06-14T05:51:06;22.75;16.25;9.75
68841;PMS5003;55849;48.482;2.332;2023-06-14T05:54:08;20.00;19.25;13.75
68841;PMS5003;55849;48.482;2.332;2023-06-14T05:57:11;21.50;16.75;12.50
68841;PMS5003;55849;48.482;2.332;2023-06-14T06:00:13;18.00;16.00;11.50
68841;PMS5003;55849;48.482;2.332;2023-06-14T06:03:16;19.25;17.50;12.00
68841;PMS5003;55849;48.482;2.332;2023-06-14T06:06:17;16.75;15.75;11.00
68841;PMS5003;55849;48.482;2.332;2023-06-14T06:09:19;17.00;14.00;9.00
68841;PMS5003;55849;48.482;2.332;2023-06-14T06:12:22;17.50;16.00;12.50
68841;PMS5003;55849;48.482;2.332;2023-06-14T06:15:24;21.00;19.75;13.25
68841;PMS5003;55849;48.482;2.332;2023-06-14T06:18:26;20.25;15.75;12.25
68841;PMS5003;55849;48.482;2.332;2023-06-14T06:21:27;19.25;15.75;13.00
68841;PMS5003;55849;48.482;2.332;2023-06-14T06:24:29;19.50;18.00;13.50
68841;PMS5003;55849;48.482;2.332;2023-06-14T06:27:32;17.50;16.25;11.50
68841;PMS5003;55849;48.482;2.332;2023-06-14T06:30:33;17.00;17.00;13.25
68841;PMS5003;55849;48.482;2.332;2023-06-14T06:33:36;20.50;16.50;12.00
68841;PMS5003;55849;48.482;2.332;2023-06-14T06:36:39;17.75;16.75;13.50
68841;PMS5003;55849;48.482;2.332;2023-06-14T06:39:42;17.75;17.75;13.25
68841;PMS5003;55849;48.482;2.332;2023-06-14T06:42:45;15.25;15.25;9.00
68841;PMS5003;55849;48.482;2.332;2023-06-14T06:45:46;18.00;16.50;12.00
68841;PMS5003;55849;48.482;2.332;2023-06-14T06:48:48;19.00;17.00;12.25
68841;PMS5003;55849;48.482;2.332;2023-06-14T06:51:59;17.00;17.00;13.50
68841;PMS5003;55849;48.482;2.332;2023-06-14T06:55:01;22.50;17.00;12.25
68841;PMS5003;55849;48.482;2.332;2023-06-14T06:58:05;23.25;19.50;13.00
68841;PMS5003;55849;48.482;2.332;2023-06-14T07:01:06;20.00;17.00;10.25
68841;PMS5003;55849;48.482;2.332;2023-06-14T07:04:09;27.50;17.25;10.75
68841;PMS5003;55849;48.482;2.332;2023-06-14T07:07:10;17.75;17.75;14.00
68841;PMS5003;55849;48.482;2.332;2023-06-14T07:10:12;16.25;14.00;9.25
68841;PMS5003;55849;48.482;2.332;2023-06-14T07:13:15;21.50;16.25;12.00
68841;PMS5003;55849;48.482;2.332;2023-06-14T07:16:16;16.25;14.75;10.75
68841;PMS5003;55849;48.482;2.332;2023-06-14T07:19:18;21.75;17.75;12.25
68841;PMS5003;55849;48.482;2.332;2023-06-14T07:22:20;16.25;15.00;9.50
68841;PMS5003;55849;48.482;2.332;2023-06-14T07:25:22;18.50;17.25;13.25
68841;PMS5003;55849;48.482;2.332;2023-06-14T07:28:25;18.75;16.75;13.25
68841;PMS5003;55849;48.482;2.332;2023-06-14T07:31:27;19.75;17.75;10.25
68841;PMS5003;55849;48.482;2.332;2023-06-14T07:34:28;17.00;14.00;10.50
68841;PMS5003;55849;48.482;2.332;2023-06-14T07:37:30;17.00;15.75;10.50
68841;PMS5003;55849;48.482;2.332;2023-06-14T07:40:31;19.75;14.75;10.00
68841;PMS5003;55849;48.482;2.332;2023-06-14T07:43:34;20.00;14.25;10.00
68841;PMS5003;55849;48.482;2.332;2023-06-14T07:46:36;16.25;14.50;10.75
68841;PMS5003;55849;48.482;2.332;2023-06-14T07:49:38;17.75;15.25;10.00
68841;PMS5003;55849;48.482;2.332;2023-06-14T07:52:39;13.50;10.25;7.75
68841;PMS5003;55849;48.482;2.332;2023-06-14T07:55:41;16.75;15.50;12.00
68841;PMS5003;55849;48.482;2.332;2023-06-14T07:58:44;14.25;12.75;8.75
68841;PMS5003;55849;48.482;2.332;2023-06-14T08:01:46;15.75;13.75;9.25
68841;PMS5003;55849;48.482;2.332;2023-06-14T08:04:48;14.25;14.25;9.50
68841;PMS5003;55849;48.482;2.332;2023-06-14T08:07:49;12.25;12.25;8.50
68841;PMS5003;55849;48.482;2.332;2023-06-14T08:10:51;14.00;13.25;10.00
68841;PMS5003;55849;48.482;2.332;2023-06-14T08:13:54;13.25;11.50;8.75
68841;PMS5003;55849;48.482;2.332;2023-06-14T08:16:55;14.75;14.75;11.50
68841;PMS5003;55849;48.482;2.332;2023-06-14T08:19:57;13.00;10.50;8.25
68841;PMS5003;55849;48.482;2.332;2023-06-14T08:22:59;17.75;16.50;10.75
68841;PMS5003;55849;48.482;2.332;2023-06-14T08:26:01;15.00;11.75;9.50
68841;PMS5003;55849;48.482;2.332;2023-06-14T08:29:05;17.75;11.25;9.25
68841;PMS5003;55849;48.482;2.332;2023-06-14T08:32:08;12.75;12.75;9.00
68841;PMS5003;55849;48.482;2.332;2023-06-14T08:35:09;15.50;10.25;7.75
68841;PMS5003;55849;48.482;2.332;2023-06-14T08:38:12;19.25;13.50;9.50
68841;PMS5003;55849;48.482;2.332;2023-06-14T08:41:14;13.50;13.50;10.25
68841;PMS5003;55849;48.482;2.332;2023-06-14T08:44:23;20.50;14.75;10.50
68841;PMS5003;55849;48.482;2.332;2023-06-14T08:47:25;13.00;10.50;9.00
68841;PMS5003;55849;48.482;2.332;2023-06-14T08:50:29;10.25;9.75;7.50
68841;PMS5003;55849;48.482;2.332;2023-06-14T08:53:33;12.75;12.00;9.50
68841;PMS5003;55849;48.482;2.332;2023-06-14T08:56:42;14.50;12.00;8.75
68841;PMS5003;55849;48.482;2.332;2023-06-14T08:59:47;13.50;11.75;7.75
68841;PMS5003;55849;48.482;2.332;2023-06-14T09:02:52;15.00;12.75;8.50
68841;PMS5003;55849;48.482;2.332;2023-06-14T09:05:58;11.75;10.75;8.50
68841;PMS5003;55849;48.482;2.332;2023-06-14T09:09:00;12.75;11.50;8.75
68841;PMS5003;55849;48.482;2.332;2023-06-14T09:12:05;16.00;15.25;10.00
68841;PMS5003;55849;48.482;2.332;2023-06-14T09:15:11;11.75;11.75;9.25
68841;PMS5003;55849;48.482;2.332;2023-06-14T09:18:14;14.50;11.50;8.75
68841;PMS5003;55849;48.482;2.332;2023-06-14T09:21:16;10.75;10.75;8.50
68841;PMS5003;55849;48.482;2.332;2023-06-14T09:24:18;10.75;10.75;8.00
68841;PMS5003;55849;48.482;2.332;2023-06-14T09:27:20;12.50;12.50;8.00
68841;PMS5003;55849;48.482;2.332;2023-06-14T09:30:23;14.75;11.25;8.50
68841;PMS5003;55849;48.482;2.332;2023-06-14T09:33:25;9.75;9.75;7.00
68841;PMS5003;55849;48.482;2.332;2023-06-14T09:36:27;13.25;8.75;7.00
68841;PMS5003;55849;48.482;2.332;2023-06-14T09:39:29;11.00;11.00;8.50
68841;PMS5003;55849;48.482;2.332;2023-06-14T09:42:31;9.75;7.25;6.00
68841;PMS5003;55849;48.482;2.332;2023-06-14T09:45:37;11.25;10.00;6.50
68841;PMS5003;55849;48.482;2.332;2023-06-14T09:48:40;12.50;9.50;8.00
68841;PMS5003;55849;48.482;2.332;2023-06-14T09:51:43;11.00;11.00;9.25
68841;PMS5003;55849;48.482;2.332;2023-06-14T09:54:46;10.75;10.75;7.25
68841;PMS5003;55849;48.482;2.332;2023-06-14T09:57:49;11.00;10.25;8.50
68841;PMS5003;55849;48.482;2.332;2023-06-14T10:00:53;12.00;10.75;8.00
68841;PMS5003;55849;48.482;2.332;2023-06-14T10:04:02;11.75;11.50;8.00
68841;PMS5003;55849;48.482;2.332;2023-06-14T10:07:05;14.25;10.00;7.25
68841;PMS5003;55849;48.482;2.332;2023-06-14T10:10:07;13.75;13.75;10.25
68841;PMS5003;55849;48.482;2.332;2023-06-14T10:13:09;15.75;11.75;8.00
68841;PMS5003;55849;48.482;2.332;2023-06-14T10:16:15;9.50;9.25;7.00
68841;PMS5003;55849;48.482;2.332;2023-06-14T10:19:21;11.75;10.50;7.00
68841;PMS5003;55849;48.482;2.332;2023-06-14T10:22:29;12.50;12.25;8.25
68841;PMS5003;55849;48.482;2.332;2023-06-14T10:25:35;12.00;10.25;9.00
68841;PMS5003;55849;48.482;2.332;2023-06-14T10:28:37;11.00;9.50;7.00
68841;PMS5003;55849;48.482;2.332;2023-06-14T10:31:43;14.25;11.25;7.00
68841;PMS5003;55849;48.482;2.332;2023-06-14T10:34:49;13.50;12.25;9.75
68841;PMS5003;55849;48.482;2.332;2023-06-14T10:37:55;13.25;10.50;8.75
68841;PMS5003;55849;48.482;2.332;2023-06-14T10:40:56;12.00;12.00;9.25
68841;PMS5003;55849;48.482;2.332;2023-06-14T10:44:10;12.75;11.25;8.25
68841;PMS5003;55849;48.482;2.332;2023-06-14T10:47:32;12.75;11.00;8.50
68841;PMS5003;55849;48.482;2.332;2023-06-14T10:50:37;14.75;12.50;9.50
68841;PMS5003;55849;48.482;2.332;2023-06-14T10:53:44;12.50;11.25;8.75
68841;PMS5003;55849;48.482;2.332;2023-06-14T10:56:47;12.75;11.75;8.75
68841;PMS5003;55849;48.482;2.332;2023-06-14T10:59:49;12.75;10.75;8.00
68841;PMS5003;55849;48.482;2.332;2023-06-14T11:02:56;16.25;14.50;9.50
68841;PMS5003;55849;48.482;2.332;2023-06-14T11:06:29;14.67;12.33;8.00
68841;PMS5003;55849;48.482;2.332;2023-06-14T11:09:56;13.50;11.75;9.25
68841;PMS5003;55849;48.482;2.332;2023-06-14T11:13:11;11.25;10.50;7.25
68841;PMS5003;55849;48.482;2.332;2023-06-14T11:16:13;14.25;13.50;8.50
68841;PMS5003;55849;48.482;2.332;2023-06-14T11:19:17;15.00;14.50;11.00
68841;PMS5003;55849;48.482;2.332;2023-06-14T11:22:19;12.75;11.50;8.75
68841;PMS5003;55849;48.482;2.332;2023-06-14T11:25:21;16.00;13.00;10.00
68841;PMS5003;55849;48.482;2.332;2023-06-14T11:28:23;12.50;12.50;9.75
68841;PMS5003;55849;48.482;2.332;2023-06-14T11:31:25;13.25;12.00;8.50
68841;PMS5003;55849;48.482;2.332;2023-06-14T11:34:29;11.25;10.50;9.50
68841;PMS5003;55849;48.482;2.332;2023-06-14T11:37:31;15.50;12.75;9.25
68841;PMS5003;55849;48.482;2.332;2023-06-14T11:40:34;11.50;11.25;8.25
68841;PMS5003;55849;48.482;2.332;2023-06-14T11:43:35;13.25;13.25;9.50
68841;PMS5003;55849;48.482;2.332;2023-06-14T11:46:37;16.50;12.25;10.25
68841;PMS5003;55849;48.482;2.332;2023-06-14T11:49:40;18.25;15.75;10.25
68841;PMS5003;55849;48.482;2.332;2023-06-14T11:52:43;12.25;12.25;9.00
68841;PMS5003;55849;48.482;2.332;2023-06-14T11:55:45;13.75;13.75;10.25
68841;PMS5003;55849;48.482;2.332;2023-06-14T11:58:47;12.25;12.25;9.25
68841;PMS5003;55849;48.482;2.332;2023-06-14T12:01:49;14.75;12.25;9.00
68841;PMS5003;55849;48.482;2.332;2023-06-14T12:04:52;14.75;12.75;9.00
68841;PMS5003;55849;48.482;2.332;2023-06-14T12:07:57;12.25;12.25;8.75
68841;PMS5003;55849;48.482;2.332;2023-06-14T12:11:00;16.25;14.00;11.00
68841;PMS5003;55849;48.482;2.332;2023-06-14T12:14:04;10.50;10.50;8.00
68841;PMS5003;55849;48.482;2.332;2023-06-14T12:17:05;14.00;9.25;8.00
68841;PMS5003;55849;48.482;2.332;2023-06-14T12:20:11;11.25;10.50;8.25
68841;PMS5003;55849;48.482;2.332;2023-06-14T12:23:15;12.50;11.00;8.50
68841;PMS5003;55849;48.482;2.332;2023-06-14T12:26:17;12.25;12.00;9.75
68841;PMS5003;55849;48.482;2.332;2023-06-14T12:29:20;11.00;9.75;7.00
68841;PMS5003;55849;48.482;2.332;2023-06-14T12:32:22;13.25;13.25;9.00
68841;PMS5003;55849;48.482;2.332;2023-06-14T12:35:25;12.25;10.75;8.25
68841;PMS5003;55849;48.482;2.332;2023-06-14T12:38:26;15.25;13.50;10.25
68841;PMS5003;55849;48.482;2.332;2023-06-14T12:41:28;13.25;11.75;9.50
68841;PMS5003;55849;48.482;2.332;2023-06-14T12:44:30;13.00;13.00;10.25
68841;PMS5003;55849;48.482;2.332;2023-06-14T12:47:33;11.75;10.00;9.25
68841;PMS5003;55849;48.482;2.332;2023-06-14T12:50:37;13.00;12.00;10.25
68841;PMS5003;55849;48.482;2.332;2023-06-14T12:53:38;16.00;14.75;10.25
68841;PMS5003;55849;48.482;2.332;2023-06-14T12:56:40;12.00;12.00;9.50
68841;PMS5003;55849;48.482;2.332;2023-06-14T12:59:43;12.25;12.25;9.25
68841;PMS5003;55849;48.482;2.332;2023-06-14T13:02:44;11.50;11.00;8.50
68841;PMS5003;55849;48.482;2.332;2023-06-14T13:05:48;14.75;11.50;9.50
68841;PMS5003;55849;48.482;2.332;2023-06-14T13:08:50;11.00;11.00;9.00
68841;PMS5003;55849;48.482;2.332;2023-06-14T13:11:54;11.25;11.25;8.00
68841;PMS5003;55849;48.482;2.332;2023-06-14T13:14:56;14.50;11.50;8.25
68841;PMS5003;55849;48.482;2.332;2023-06-14T13:17:58;12.25;12.00;9.50
68841;PMS5003;55849;48.482;2.332;2023-06-14T13:21:01;11.75;11.00;9.00
68841;PMS5003;55849;48.482;2.332;2023-06-14T13:24:02;10.50;10.50;8.25
68841;PMS5003;55849;48.482;2.332;2023-06-14T13:27:04;11.75;11.75;8.50
68841;PMS5003;55849;48.482;2.332;2023-06-14T13:30:07;12.00;11.75;8.00
68841;PMS5003;55849;48.482;2.332;2023-06-14T13:33:09;13.25;12.50;10.00
68841;PMS5003;55849;48.482;2.332;2023-06-14T13:36:12;13.75;11.75;10.25
68841;PMS5003;55849;48.482;2.332;2023-06-14T13:39:14;13.50;12.25;9.25
68841;PMS5003;55849;48.482;2.332;2023-06-14T13:42:15;9.50;9.50;7.00
68841;PMS5003;55849;48.482;2.332;2023-06-14T13:45:18;13.50;12.00;9.50
68841;PMS5003;55849;48.482;2.332;2023-06-14T13:48:19;12.50;11.00;8.75
68841;PMS5003;55849;48.482;2.332;2023-06-14T13:51:23;14.50;13.00;10.00
68841;PMS5003;55849;48.482;2.332;2023-06-14T13:54:26;14.25;12.75;10.25
68841;PMS5003;55849;48.482;2.332;2023-06-14T13:57:28;10.25;10.25;7.75
68841;PMS5003;55849;48.482;2.332;2023-06-14T14:00:29;15.75;14.50;10.50
68841;PMS5003;55849;48.482;2.332;2023-06-14T14:03:31;15.75;12.75;10.00
68841;PMS5003;55849;48.482;2.332;2023-06-14T14:06:34;13.00;10.50;7.00
68841;PMS5003;55849;48.482;2.332;2023-06-14T14:09:36;15.25;13.25;11.00
68841;PMS5003;55849;48.482;2.332;2023-06-14T14:12:39;14.50;12.50;9.50
68841;PMS5003;55849;48.482;2.332;2023-06-14T14:15:41;11.50;11.50;9.25
68841;PMS5003;55849;48.482;2.332;2023-06-14T14:18:42;12.00;12.00;9.75
68841;PMS5003;55849;48.482;2.332;2023-06-14T14:21:45;13.50;12.50;10.00
68841;PMS5003;55849;48.482;2.332;2023-06-14T14:24:47;12.50;12.50;10.00
68841;PMS5003;55849;48.482;2.332;2023-06-14T14:27:48;11.25;9.50;7.50
68841;PMS5003;55849;48.482;2.332;2023-06-14T14:30:50;14.50;13.00;10.00
68841;PMS5003;55849;48.482;2.332;2023-06-14T14:33:51;11.75;11.75;9.25
68841;PMS5003;55849;48.482;2.332;2023-06-14T14:36:54;11.25;10.00;8.25
68841;PMS5003;55849;48.482;2.332;2023-06-14T14:39:56;13.50;13.50;9.50
68841;PMS5003;55849;48.482;2.332;2023-06-14T14:42:58;7.25;7.25;7.25
68841;PMS5003;55849;48.482;2.332;2023-06-14T14:45:59;12.25;11.50;8.75
68841;PMS5003;55849;48.482;2.332;2023-06-14T14:49:01;13.00;13.00;9.75
68841;PMS5003;55849;48.482;2.332;2023-06-14T14:52:04;9.75;9.75;7.75
68841;PMS5003;55849;48.482;2.332;2023-06-14T14:55:07;11.00;11.00;9.00
68841;PMS5003;55849;48.482;2.332;2023-06-14T14:58:09;14.75;12.50;10.25
68841;PMS5003;55849;48.482;2.332;2023-06-14T15:01:11;10.75;10.00;8.00
68841;PMS5003;55849;48.482;2.332;2023-06-14T15:04:12;11.25;11.25;8.75
68841;PMS5003;55849;48.482;2.332;2023-06-14T15:07:15;11.25;11.25;8.25
68841;PMS5003;55849;48.482;2.332;2023-06-14T15:10:17;12.00;10.75;8.25
68841;PMS5003;55849;48.482;2.332;2023-06-14T15:13:18;10.00;10.00;7.75
68841;PMS5003;55849;48.482;2.332;2023-06-14T15:16:20;12.00;10.50;8.50
68841;PMS5003;55849;48.482;2.332;2023-06-14T15:19:21;12.25;10.25;7.50
68841;PMS5003;55849;48.482;2.332;2023-06-14T15:22:24;12.50;12.50;8.50
68841;PMS5003;55849;48.482;2.332;2023-06-14T15:25:26;13.00;11.25;9.00
68841;PMS5003;55849;48.482;2.332;2023-06-14T15:28:28;11.50;10.00;7.75
68841;PMS5003;55849;48.482;2.332;2023-06-14T15:31:29;10.75;10.25;7.75
68841;PMS5003;55849;48.482;2.332;2023-06-14T15:34:31;10.75;10.75;8.50
68841;PMS5003;55849;48.482;2.332;2023-06-14T15:37:34;12.50;12.25;9.75
68841;PMS5003;55849;48.482;2.332;2023-06-14T15:40:36;11.50;11.50;10.50
68841;PMS5003;55849;48.482;2.332;2023-06-14T15:43:38;10.00;10.00;9.00
68841;PMS5003;55849;48.482;2.332;2023-06-14T15:46:39;11.00;11.00;8.75
68841;PMS5003;55849;48.482;2.332;2023-06-14T15:49:41;10.00;10.00;8.25
68841;PMS5003;55849;48.482;2.332;2023-06-14T15:52:44;11.00;11.00;9.00
68841;PMS5003;55849;48.482;2.332;2023-06-14T15:55:46;11.25;10.25;8.50
68841;PMS5003;55849;48.482;2.332;2023-06-14T15:58:48;10.00;10.00;8.50
68841;PMS5003;55849;48.482;2.332;2023-06-14T16:01:49;9.25;9.25;8.25
68841;PMS5003;55849;48.482;2.332;2023-06-14T16:04:51;11.75;11.25;9.50
68841;PMS5003;55849;48.482;2.332;2023-06-14T16:07:54;11.00;11.00;9.50
68841;PMS5003;55849;48.482;2.332;2023-06-14T16:10:55;10.25;10.25;8.25
68841;PMS5003;55849;48.482;2.332;2023-06-14T16:13:57;10.00;10.00;8.25
68841;PMS5003;55849;48.482;2.332;2023-06-14T16:16:59;11.00;9.75;8.50
68841;PMS5003;55849;48.482;2.332;2023-06-14T16:20:00;10.50;10.50;8.50
68841;PMS5003;55849;48.482;2.332;2023-06-14T16:23:03;10.00;10.00;8.25
68841;PMS5003;55849;48.482;2.332;2023-06-14T16:26:05;13.50;12.00;10.00
68841;PMS5003;55849;48.482;2.332;2023-06-14T16:29:11;11.75;10.00;8.00
68841;PMS5003;55849;48.482;2.332;2023-06-14T16:32:12;13.25;12.25;8.50
68841;PMS5003;55849;48.482;2.332;2023-06-14T16:35:14;11.25;11.25;8.75
68841;PMS5003;55849;48.482;2.332;2023-06-14T16:38:17;11.25;10.25;8.75
68841;PMS5003;55849;48.482;2.332;2023-06-14T16:41:21;10.00;10.00;8.50
68841;PMS5003;55849;48.482;2.332;2023-06-14T16:44:22;12.00;11.50;10.00
68841;PMS5003;55849;48.482;2.332;2023-06-14T16:47:25;14.25;11.75;9.00
68841;PMS5003;55849;48.482;2.332;2023-06-14T16:50:26;10.00;10.00;8.25
68841;PMS5003;55849;48.482;2.332;2023-06-14T16:53:29;10.75;10.75;9.00
68841;PMS5003;55849;48.482;2.332;2023-06-14T16:56:31;11.75;11.00;9.00
68841;PMS5003;55849;48.482;2.332;2023-06-14T16:59:32;10.50;10.50;9.50
68841;PMS5003;55849;48.482;2.332;2023-06-14T17:02:34;11.75;11.75;9.25
68841;PMS5003;55849;48.482;2.332;2023-06-14T17:05:35;11.00;11.00;9.25
68841;PMS5003;55849;48.482;2.332;2023-06-14T17:08:41;11.50;11.50;9.50
68841;PMS5003;55849;48.482;2.332;2023-06-14T17:11:43;11.25;11.25;9.25
68841;PMS5003;55849;48.482;2.332;2023-06-14T17:14:45;12.50;11.50;9.25
68841;PMS5003;55849;48.482;2.332;2023-06-14T17:17:46;12.00;12.00;10.00